Time;durP1;ratioP1;P1;durP2;ratioP2;P2;SDS_P1;SDS_P2;PMS_P1;PMS_P2;Temp;Humidity;BMP_temperature;BMP_pressure;BME280_temperature;BME280_humidity;BME280_pressure;Samples;Min_cycle;Max_cycle;Signal;HPM_P1;HPM_P2
2022/10/15 00:00:47;;;;;;;20.27;14.10;;;;;;;14.87;93.86;99966.69;5041267;28;20052;-76
2022/10/15 00:03:13;;;;;;;14.85;13.27;;;;;;;14.81;94.96;99962.47;5046261;28;20128;-76
2022/10/15 00:05:39;;;;;;;16.52;13.45;;;;;;;14.78;96.21;99962.56;5040075;28;20037;-76
2022/10/15 00:08:07;;;;;;;19.30;14.50;;;;;;;14.71;97.17;99958.34;5040045;28;20415;-76
2022/10/15 00:10:33;;;;;;;15.73;12.73;;;;;;;14.71;97.33;99958.34;5042296;28;20037;-76
2022/10/15 00:12:58;;;;;;;17.00;13.63;;;;;;;14.72;97.16;99949.47;5041692;28;20585;-76
2022/10/15 00:15:23;;;;;;;14.85;13.15;;;;;;;14.73;97.14;99953.88;5040760;28;20029;-75
2022/10/15 00:17:49;;;;;;;16.83;13.75;;;;;;;14.70;96.93;99951.31;5042851;28;20514;-75
2022/10/15 00:20:14;;;;;;;16.40;13.05;;;;;;;14.73;97.37;99945.91;5039769;28;20041;-76
2022/10/15 00:22:40;;;;;;;18.55;13.95;;;;;;;14.70;97.75;99943.34;5043041;28;20028;-76
2022/10/15 00:25:05;;;;;;;18.02;12.88;;;;;;;14.73;97.46;99945.91;5035792;28;20041;-76
2022/10/15 00:27:32;;;;;;;17.30;14.07;;;;;;;14.72;98.09;99933.53;5043580;28;20041;-76
2022/10/15 00:29:59;;;;;;;18.60;14.52;;;;;;;14.69;98.35;99936.28;5044935;28;20082;-76
2022/10/15 00:32:25;;;;;;;18.50;14.25;;;;;;;14.70;98.12;99938.03;5042532;28;20079;-76
2022/10/15 00:34:50;;;;;;;15.82;12.85;;;;;;;14.72;97.66;99928.22;5046351;28;20363;-76
2022/10/15 00:37:16;;;;;;;18.23;14.00;;;;;;;14.76;97.84;99929.88;5043980;28;20172;-75
2022/10/15 00:39:41;;;;;;;18.90;13.93;;;;;;;14.75;98.19;99936.09;5046105;28;20060;-76
2022/10/15 00:42:09;;;;;;;17.75;13.35;;;;;;;14.77;98.01;99928.06;5044901;28;20068;-76
2022/10/15 00:44:53;;;;;;;17.20;13.45;;;;;;;14.76;98.01;99932.53;5044418;28;20032;-76
2022/10/15 00:47:28;;;;;;;15.73;12.98;;;;;;;14.75;97.84;99928.13;5044956;28;20041;-76
2022/10/15 00:50:22;;;;;;;19.00;14.38;;;;;;;14.76;97.92;99927.22;5043553;28;20038;-76
2022/10/15 00:52:59;;;;;;;17.08;13.07;;;;;;;14.78;97.81;99927.16;5042263;28;20147;-75
2022/10/15 00:55:37;;;;;;;18.60;12.98;;;;;;;14.80;97.33;99934.16;5043858;28;20643;-76
2022/10/15 00:58:15;;;;;;;16.73;13.35;;;;;;;14.77;97.67;99928.06;5044786;28;20029;-75
2022/10/15 01:00:41;;;;;;;16.85;12.43;;;;;;;14.78;97.45;99921.84;5046593;28;20029;-76
2022/10/15 01:03:07;;;;;;;14.73;11.10;;;;;;;14.85;97.31;99920.72;5046315;28;20124;-76
2022/10/15 01:05:34;;;;;;;16.75;13.07;;;;;;;14.84;97.22;99918.97;5043373;28;20041;-74
2022/10/15 01:07:59;;;;;;;14.80;11.63;;;;;;;14.81;96.87;99912.00;5044947;28;20075;-76
2022/10/15 01:10:35;;;;;;;14.45;12.40;;;;;;;14.88;96.76;99902.91;5045012;28;20045;-75
2022/10/15 01:13:13;;;;;;;14.43;11.20;;;;;;;14.89;96.51;99901.97;5043424;28;20052;-76
2022/10/15 01:16:03;;;;;;;16.50;12.82;;;;;;;14.85;96.49;99900.31;5043237;28;20029;-76
2022/10/15 01:18:36;;;;;;;16.98;12.50;;;;;;;14.86;96.97;99899.41;5047452;28;20127;-76
2022/10/15 01:21:11;;;;;;;13.10;11.70;;;;;;;14.89;96.56;99896.66;5043586;28;20037;-76
2022/10/15 01:24:21;;;;;;;16.67;11.35;;;;;;;14.87;96.96;99897.63;5042730;28;20026;-76
2022/10/15 01:27:14;;;;;;;16.95;12.75;;;;;;;14.77;97.29;99904.16;5056287;28;20033;-76
2022/10/15 01:30:00;;;;;;;14.65;11.90;;;;;;;14.79;97.31;99904.97;5050509;28;20034;-75
2022/10/15 01:32:28;;;;;;;13.73;11.82;;;;;;;14.84;97.59;99903.91;5045809;28;20033;-76
2022/10/15 01:35:03;;;;;;;14.40;12.48;;;;;;;14.89;96.75;99901.09;5040154;28;20044;-75
2022/10/15 01:37:40;;;;;;;18.13;12.73;;;;;;;14.86;96.59;99899.41;5057687;28;20040;-76
2022/10/15 01:40:13;;;;;;;14.15;12.23;;;;;;;14.86;97.23;99893.25;5043429;28;20531;-76
2022/10/15 01:42:56;;;;;;;18.08;13.32;;;;;;;14.83;96.88;99896.88;5041501;28;20041;-76
2022/10/15 01:45:38;;;;;;;16.83;11.50;;;;;;;14.76;97.42;99887.38;5040975;28;20037;-76
2022/10/15 01:48:21;;;;;;;16.00;12.23;;;;;;;14.75;97.71;99892.72;5041895;28;20033;-76
2022/10/15 01:50:50;;;;;;;15.93;13.50;;;;;;;14.78;97.93;99893.50;5044438;28;20036;-76
2022/10/15 01:53:25;;;;;;;17.88;13.20;;;;;;;14.72;97.88;99892.81;5049148;28;20148;-76
2022/10/15 01:55:57;;;;;;;17.45;12.65;;;;;;;14.68;98.75;99884.97;5042301;28;20092;-75
2022/10/15 01:58:23;;;;;;;17.25;12.23;;;;;;;14.73;98.26;99884.81;5042357;28;20064;-76
2022/10/15 02:00:53;;;;;;;14.90;11.75;;;;;;;14.73;98.08;99876.84;5040325;28;20413;-76
2022/10/15 02:03:18;;;;;;;14.90;12.45;;;;;;;14.71;98.38;99883.13;5048503;28;20045;-75
2022/10/15 02:06:18;;;;;;;16.08;13.35;;;;;;;14.76;98.24;99874.09;5038001;28;20664;-76
2022/10/15 02:09:26;;;;;;;18.92;12.23;;;;;;;14.78;97.71;99876.69;5030438;28;20055;-76
2022/10/15 02:12:19;;;;;;;15.60;13.13;;;;;;;14.75;97.74;99877.66;5042645;28;20045;-75
2022/10/15 02:14:58;;;;;;;17.55;12.85;;;;;;;14.75;98.28;99877.66;5041889;28;20033;-75
2022/10/15 02:17:38;;;;;;;18.80;13.45;;;;;;;14.69;98.77;99877.84;5040272;28;20033;-76
2022/10/15 02:20:23;;;;;;;18.00;14.30;;;;;;;14.61;99.24;99879.91;5041647;28;20457;-76
2022/10/15 02:23:02;;;;;;;14.32;12.57;;;;;;;14.62;99.12;99871.03;5042260;28;20034;-76
2022/10/15 02:25:28;;;;;;;16.77;12.32;;;;;;;14.61;99.42;99871.94;5041767;28;20037;-76
2022/10/15 02:27:56;;;;;;;17.58;13.43;;;;;;;14.67;98.87;99872.63;5042657;28;20033;-76
2022/10/15 02:30:22;;;;;;;15.80;13.52;;;;;;;14.71;98.45;99865.41;5038908;28;20064;-75
2022/10/15 02:32:52;;;;;;;16.50;13.77;;;;;;;14.69;99.10;99867.22;5044574;28;20125;-75
2022/10/15 02:35:21;;;;;;;18.58;14.73;;;;;;;14.62;99.12;99863.06;5041481;28;20033;-76
2022/10/15 02:37:50;;;;;;;21.58;14.63;;;;;;;14.62;99.30;99852.44;5042460;28;20064;-76
2022/10/15 02:40:22;;;;;;;15.02;13.30;;;;;;;14.58;99.55;99856.09;5039414;28;20040;-76
2022/10/15 02:42:49;;;;;;;17.40;14.18;;;;;;;14.57;99.73;99851.72;5051355;28;20032;-76
2022/10/15 02:45:15;;;;;;;15.65;14.00;;;;;;;14.55;100.00;99837.63;5037006;28;20026;-76
2022/10/15 02:47:40;;;;;;;21.17;14.13;;;;;;;14.49;100.00;99849.28;5042450;28;20033;-76
2022/10/15 02:50:05;;;;;;;22.63;15.15;;;;;;;14.52;100.00;99840.34;5040816;28;20044;-76
2022/10/15 02:52:31;;;;;;;19.10;14.18;;;;;;;14.53;100.00;99839.47;5038832;28;20041;-76
2022/10/15 02:54:58;;;;;;;20.50;15.27;;;;;;;14.46;100.00;99847.59;5052206;28;20028;-76
2022/10/15 02:57:23;;;;;;;18.27;14.27;;;;;;;14.45;100.00;99847.66;5039826;28;20036;-76
2022/10/15 02:59:49;;;;;;;24.00;15.60;;;;;;;14.51;100.00;99851.88;5042547;28;20028;-76
2022/10/15 03:02:14;;;;;;;18.67;14.13;;;;;;;14.59;100.00;99855.19;5044470;28;20041;-76
2022/10/15 03:04:39;;;;;;;20.20;14.43;;;;;;;14.68;99.45;99857.53;5038119;28;20033;-76
2022/10/15 03:07:05;;;;;;;17.67;15.05;;;;;;;14.68;99.55;99852.22;5041881;28;20037;-76
2022/10/15 03:09:30;;;;;;;19.20;15.07;;;;;;;14.62;100.00;99852.44;5040099;28;20037;-76
2022/10/15 03:11:56;;;;;;;19.98;15.98;;;;;;;14.56;100.00;99863.25;5044100;28;20040;-76
2022/10/15 03:14:21;;;;;;;18.00;16.10;;;;;;;14.58;100.00;99856.97;5040942;28;20037;-75
2022/10/15 03:16:46;;;;;;;18.92;14.40;;;;;;;14.64;100.00;99851.44;5042198;28;20487;-76
2022/10/15 03:19:11;;;;;;;18.38;16.25;;;;;;;14.65;99.90;99844.38;5041593;28;20128;-76
2022/10/15 03:21:38;;;;;;;22.50;15.60;;;;;;;14.60;100.00;99847.16;5043991;28;20120;-76
2022/10/15 03:24:08;;;;;;;21.00;16.77;;;;;;;14.59;100.00;99845.44;5039425;28;20061;-76
2022/10/15 03:26:34;;;;;;;16.50;13.45;;;;;;;14.66;99.78;99851.41;5040494;28;20079;-76
2022/10/15 03:28:59;;;;;;;19.45;14.98;;;;;;;14.65;99.57;99849.69;5041668;28;20064;-74
2022/10/15 03:31:33;;;;;;;19.40;15.25;;;;;;;14.65;99.55;99853.19;5050746;28;20029;-76
2022/10/15 03:34:02;;;;;;;18.45;14.88;;;;;;;14.66;99.22;99856.72;5050601;28;20033;-75
2022/10/15 03:36:28;;;;;;;18.85;15.25;;;;;;;14.68;99.59;99860.19;5035813;28;20037;-75
2022/10/15 03:38:53;;;;;;;20.67;16.23;;;;;;;14.71;98.96;99854.78;5056604;28;20083;-76
2022/10/15 03:41:19;;;;;;;18.60;14.77;;;;;;;14.74;98.73;99862.63;5042537;28;20033;-76
2022/10/15 03:43:46;;;;;;;18.98;16.30;;;;;;;14.74;98.70;99854.66;5042382;28;20614;-76
2022/10/15 03:46:11;;;;;;;19.55;16.25;;;;;;;14.75;98.06;99851.09;5039106;28;20124;-76
2022/10/15 03:48:41;;;;;;;20.60;16.02;;;;;;;14.73;98.61;99842.31;5039022;28;20033;-76
2022/10/15 03:51:08;;;;;;;19.15;15.57;;;;;;;14.67;98.88;99847.81;5042390;28;20032;-75
2022/10/15 03:53:33;;;;;;;20.02;16.85;;;;;;;14.68;99.26;99837.16;5048228;28;20179;-76
2022/10/15 03:56:04;;;;;;;18.63;16.10;;;;;;;14.66;99.66;99835.47;5037699;28;20753;-76
2022/10/15 03:58:30;;;;;;;23.90;17.83;;;;;;;14.65;99.93;99831.09;5042187;28;20435;-76
2022/10/15 04:00:58;;;;;;;24.33;17.80;;;;;;;14.64;100.00;99824.88;5035976;28;20108;-75
2022/10/15 04:03:23;;;;;;;20.70;16.50;;;;;;;14.66;100.00;99816.88;5058845;28;20054;-76
2022/10/15 04:05:50;;;;;;;18.63;15.90;;;;;;;14.67;100.00;99826.56;5036973;28;20074;-76
2022/10/15 04:08:16;;;;;;;20.98;16.92;;;;;;;14.69;100.00;99827.38;5042634;28;20050;-75
2022/10/15 04:10:42;;;;;;;22.83;17.42;;;;;;;14.68;99.86;99818.56;5038503;28;20535;-76
2022/10/15 04:13:08;;;;;;;24.33;20.02;;;;;;;14.62;100.00;99825.88;5038736;28;20063;-76
2022/10/15 04:15:34;;;;;;;20.55;18.35;;;;;;;14.55;100.00;99817.25;5040944;28;20028;-76
2022/10/15 04:18:04;;;;;;;22.05;16.98;;;;;;;14.56;100.00;99820.75;5037623;28;20047;-75
2022/10/15 04:20:30;;;;;;;24.65;16.67;;;;;;;14.57;100.00;99820.72;5042453;28;20479;-76
2022/10/15 04:23:08;;;;;;;21.17;17.52;;;;;;;14.59;100.00;99813.59;5039536;28;20037;-76
2022/10/15 04:25:37;;;;;;;19.60;17.33;;;;;;;14.61;100.00;99816.16;5039686;28;20033;-76
2022/10/15 04:28:03;;;;;;;22.40;18.40;;;;;;;14.57;100.00;99814.56;5037969;28;20036;-75
2022/10/15 04:30:30;;;;;;;18.30;16.30;;;;;;;14.58;100.00;99817.13;5041597;28;20036;-75
2022/10/15 04:32:58;;;;;;;20.08;15.23;;;;;;;14.62;100.00;99823.22;5039158;28;20055;-76
2022/10/15 04:35:24;;;;;;;18.83;16.63;;;;;;;14.59;100.00;99824.19;5039887;28;20032;-76
2022/10/15 04:37:58;;;;;;;23.00;16.65;;;;;;;14.59;100.00;99826.84;5037984;28;20034;-76
2022/10/15 04:40:24;;;;;;;20.00;17.63;;;;;;;14.59;100.00;99818.00;5058405;28;20040;-76
2022/10/15 04:42:49;;;;;;;19.40;15.20;;;;;;;14.65;100.00;99820.47;5040341;28;20048;-75
2022/10/15 04:45:15;;;;;;;20.95;16.92;;;;;;;14.67;99.99;99818.59;5040594;28;20462;-75
2022/10/15 04:47:40;;;;;;;18.65;15.48;;;;;;;14.67;100.00;99818.59;5053224;28;20060;-76
2022/10/15 04:50:09;;;;;;;23.08;17.42;;;;;;;14.66;99.83;99825.72;5041334;28;20475;-76
2022/10/15 04:52:53;;;;;;;19.17;16.77;;;;;;;14.65;99.77;99823.13;5042032;28;20076;-75
2022/10/15 04:55:18;;;;;;;21.40;17.92;;;;;;;14.67;99.59;99821.25;5038882;28;20053;-76
2022/10/15 04:57:44;;;;;;;17.38;15.15;;;;;;;14.64;100.00;99824.03;5042600;28;20041;-76
2022/10/15 05:00:10;;;;;;;23.08;17.92;;;;;;;14.67;100.00;99832.78;5039129;28;20025;-76
2022/10/15 05:02:54;;;;;;;21.88;17.50;;;;;;;14.68;100.00;99823.88;5043303;28;20166;-76
2022/10/15 05:05:24;;;;;;;20.27;17.17;;;;;;;14.72;100.00;99829.94;5038444;28;20033;-76
2022/10/15 05:07:59;;;;;;;19.52;16.50;;;;;;;14.71;100.00;99830.88;5039061;28;20060;-76
2022/10/15 05:10:25;;;;;;;22.63;18.27;;;;;;;14.66;100.00;99825.72;5054155;28;20029;-76
2022/10/15 05:12:51;;;;;;;21.58;18.30;;;;;;;14.65;100.00;99825.78;5026350;28;20517;-75
2022/10/15 05:15:26;;;;;;;20.55;16.95;;;;;;;14.65;100.00;99820.47;5039373;28;20450;-76
2022/10/15 05:17:51;;;;;;;23.23;18.15;;;;;;;14.62;100.00;99823.22;5049204;28;20064;-75
2022/10/15 05:20:16;;;;;;;23.95;17.17;;;;;;;14.60;100.00;99810.00;5043433;28;20057;-76
2022/10/15 05:22:41;;;;;;;22.60;16.83;;;;;;;14.65;100.00;99812.50;5041295;28;20041;-75
2022/10/15 05:25:07;;;;;;;23.08;19.00;;;;;;;14.60;100.00;99814.44;5044817;28;20048;-76
2022/10/15 05:27:35;;;;;;;26.52;18.90;;;;;;;14.62;100.00;99816.13;5042261;28;20091;-76
2022/10/15 05:30:03;;;;;;;18.33;15.75;;;;;;;14.65;100.00;99823.13;5042765;28;20037;-76
2022/10/15 05:32:34;;;;;;;;;;;;;;;14.62;100.00;99831.19;5027055;28;20033;-76
2022/10/15 05:35:00;;;;;;;17.73;15.82;;;;;;;14.62;100.00;99832.06;5044143;28;19920;-75
2022/10/15 05:37:37;;;;;;;23.95;16.45;;;;;;;14.64;99.96;99826.69;5040428;28;20491;-76
2022/10/15 05:40:03;;;;;;;19.05;14.38;;;;;;;14.65;99.42;99831.94;5052035;28;20096;-75
2022/10/15 05:42:28;;;;;;;17.02;15.25;;;;;;;14.70;99.33;99837.13;5042624;28;20029;-76
2022/10/15 05:44:56;;;;;;;18.10;15.70;;;;;;;14.72;98.58;99843.22;5043714;28;20514;-76
2022/10/15 05:47:22;;;;;;;19.83;16.80;;;;;;;14.70;99.01;99839.78;5039013;28;20030;-76
2022/10/15 05:49:47;;;;;;;17.73;15.77;;;;;;;14.75;98.11;99835.16;5046789;28;20438;-75
2022/10/15 05:52:22;;;;;;;19.85;16.02;;;;;;;14.83;97.29;99838.44;5041026;28;20073;-75
2022/10/15 05:55:06;;;;;;;20.50;17.85;;;;;;;14.76;97.57;99826.28;5042420;28;20124;-76
2022/10/15 05:57:32;;;;;;;20.20;17.92;;;;;;;14.75;97.66;99824.53;5045311;28;20032;-76
2022/10/15 06:00:05;;;;;;;22.67;18.55;;;;;;;14.77;97.56;99817.38;5038658;28;20025;-75
2022/10/15 06:02:37;;;;;;;20.67;18.48;;;;;;;14.83;97.38;99821.63;5045367;28;20122;-75
2022/10/15 06:05:03;;;;;;;22.85;18.75;;;;;;;14.83;97.12;99827.81;5045321;28;20052;-76
2022/10/15 06:07:31;;;;;;;22.35;17.73;;;;;;;14.82;97.25;99820.72;5042285;28;20494;-76
2022/10/15 06:09:57;;;;;;;20.67;18.38;;;;;;;14.78;97.75;99826.22;5042944;28;20040;-75
2022/10/15 06:12:22;;;;;;;18.13;15.82;;;;;;;14.82;97.92;99830.50;5044500;28;20041;-76
2022/10/15 06:14:47;;;;;;;20.80;18.38;;;;;;;14.84;98.20;99832.19;5042724;28;20038;-75
2022/10/15 06:17:13;;;;;;;18.95;14.20;;;;;;;14.85;98.32;99831.25;5044812;28;20041;-76
2022/10/15 06:19:40;;;;;;;17.15;14.27;;;;;;;14.89;98.20;99843.50;5040898;28;20029;-76
2022/10/15 06:22:06;;;;;;;19.13;14.52;;;;;;;14.95;98.16;99846.88;5044497;28;20025;-76
2022/10/15 06:24:31;;;;;;;19.88;15.13;;;;;;;14.97;98.37;99845.91;5041710;28;20045;-76
2022/10/15 06:26:58;;;;;;;17.17;14.93;;;;;;;15.02;97.86;99854.59;5042969;28;20044;-76
2022/10/15 06:29:23;;;;;;;15.73;13.98;;;;;;;15.04;97.99;99857.19;5044456;28;20037;-75
2022/10/15 06:31:51;;;;;;;16.20;13.88;;;;;;;15.05;97.54;99864.25;5043203;28;20037;-76
2022/10/15 06:34:17;;;;;;;20.80;16.55;;;;;;;15.03;97.44;99861.63;5044490;28;20052;-76
2022/10/15 06:36:42;;;;;;;19.70;16.00;;;;;;;15.07;97.75;99862.41;5054203;28;20049;-76
2022/10/15 06:39:07;;;;;;;18.67;16.75;;;;;;;15.10;97.35;99864.94;5043190;28;20037;-76
2022/10/15 06:41:33;;;;;;;19.45;16.10;;;;;;;15.11;97.50;99867.53;5042840;28;20048;-75
2022/10/15 06:43:58;;;;;;;21.23;16.48;;;;;;;15.16;97.99;99870.03;5043744;28;20041;-76
2022/10/15 06:46:23;;;;;;;20.23;16.60;;;;;;;15.17;98.30;99878.88;5041135;28;20041;-76
2022/10/15 06:48:50;;;;;;;19.98;17.63;;;;;;;15.18;97.56;99875.31;5056645;28;20041;-76
2022/10/15 06:51:16;;;;;;;21.08;15.88;;;;;;;15.23;97.46;99871.56;5044015;28;20098;-75
2022/10/15 06:53:47;;;;;;;;;;;;;;;15.32;97.55;99868.56;5043968;28;20037;-75
2022/10/15 06:56:13;;;;;;;21.10;18.13;;;;;;;15.46;97.37;99869.88;5041460;28;19917;-76
2022/10/15 06:58:42;;;;;;;18.42;15.30;;;;;;;15.59;96.69;99868.50;5046435;28;20024;-76
2022/10/15 07:01:08;;;;;;;18.27;16.17;;;;;;;15.68;96.55;99865.47;5041417;28;20103;-76
2022/10/15 07:03:34;;;;;;;21.42;17.00;;;;;;;15.81;96.07;99865.03;5046993;28;20043;-75
2022/10/15 07:06:02;;;;;;;16.50;14.65;;;;;;;15.92;95.14;99868.16;5042932;28;20038;-76
2022/10/15 07:08:27;;;;;;;18.00;15.52;;;;;;;16.01;94.66;99873.13;5041409;28;20061;-76
2022/10/15 07:10:53;;;;;;;22.63;17.98;;;;;;;16.06;94.72;99871.16;5045304;28;20041;-76
2022/10/15 07:13:21;;;;;;;20.58;18.23;;;;;;;16.14;94.26;99876.19;5041609;28;20034;-76
2022/10/15 07:15:52;;;;;;;17.77;15.45;;;;;;;16.19;94.06;99879.50;5042523;28;20040;-76
2022/10/15 07:18:18;;;;;;;18.65;16.75;;;;;;;16.16;93.95;99877.81;5041869;28;20041;-76
2022/10/15 07:20:43;;;;;;;23.17;18.13;;;;;;;16.20;93.39;99891.91;5040194;28;20035;-76
2022/10/15 07:23:08;;;;;;;18.77;16.02;;;;;;;16.30;93.35;99892.41;5044134;28;20033;-75
2022/10/15 07:25:34;;;;;;;16.70;15.05;;;;;;;16.45;92.57;99878.47;5040996;28;20049;-76
2022/10/15 07:27:59;;;;;;;22.92;18.58;;;;;;;16.60;91.92;99866.31;5043069;28;20033;-76
2022/10/15 07:30:26;;;;;;;19.05;17.15;;;;;;;16.63;91.64;99880.38;5042710;28;20037;-75
2022/10/15 07:32:51;;;;;;;18.80;16.80;;;;;;;16.71;91.36;99868.53;5044384;28;20075;-76
2022/10/15 07:35:17;;;;;;;18.92;15.30;;;;;;;16.72;90.83;99870.28;5040562;28;20080;-75
2022/10/15 07:37:42;;;;;;;19.13;15.98;;;;;;;16.80;90.80;99863.72;5043734;28;20028;-76
2022/10/15 07:40:08;;;;;;;17.10;14.88;;;;;;;16.85;89.85;99866.19;5040947;28;20037;-76
2022/10/15 07:42:33;;;;;;;16.23;14.15;;;;;;;16.93;89.96;99866.72;5042848;28;20036;-75
2022/10/15 07:44:58;;;;;;;19.90;17.85;;;;;;;17.01;89.62;99867.25;5041717;28;20167;-76
2022/10/15 07:47:24;;;;;;;17.27;15.45;;;;;;;17.02;89.42;99868.97;5041299;28;20040;-77
2022/10/15 07:49:49;;;;;;;19.02;15.35;;;;;;;17.11;89.11;99877.50;5042909;28;20041;-75
2022/10/15 07:52:15;;;;;;;16.90;15.10;;;;;;;17.14;88.49;99883.59;5040528;28;20049;-76
2022/10/15 07:54:40;;;;;;;20.35;14.93;;;;;;;17.20;88.15;99888.66;5044816;28;20025;-76
2022/10/15 07:57:08;;;;;;;16.30;14.50;;;;;;;17.26;86.81;99898.19;5043174;28;20491;-75
2022/10/15 07:59:34;;;;;;;14.30;12.80;;;;;;;17.23;86.86;99887.66;5042437;28;20450;-75
2022/10/15 08:01:59;;;;;;;15.90;14.25;;;;;;;17.24;86.19;99892.94;5044359;28;20036;-77
2022/10/15 08:04:24;;;;;;;15.35;13.45;;;;;;;17.06;85.31;99891.94;5040957;28;20136;-76
2022/10/15 08:06:50;;;;;;;15.57;13.98;;;;;;;17.00;86.58;99891.31;5043212;28;20067;-76
2022/10/15 08:09:15;;;;;;;17.25;13.55;;;;;;;16.97;85.92;99889.63;5040356;28;20081;-77
2022/10/15 08:11:41;;;;;;;14.98;13.38;;;;;;;16.92;85.47;99904.09;5043308;28;20040;-76
2022/10/15 08:14:08;;;;;;;15.10;12.95;;;;;;;16.88;85.79;99897.19;5037176;28;20087;-76
2022/10/15 08:16:34;;;;;;;18.10;14.15;;;;;;;16.79;86.09;99906.41;5042249;28;20183;-76
2022/10/15 08:18:59;;;;;;;14.65;13.00;;;;;;;16.71;86.44;99912.03;5040932;28;20041;-76
2022/10/15 08:21:25;;;;;;;20.55;13.90;;;;;;;16.62;86.31;99909.75;5043553;28;20067;-77
2022/10/15 08:23:51;;;;;;;14.73;12.40;;;;;;;16.60;87.55;99914.28;5040166;28;20044;-74
2022/10/15 08:26:16;;;;;;;16.58;12.13;;;;;;;16.63;87.34;99914.13;5042734;28;20033;-75
2022/10/15 08:28:41;;;;;;;14.20;12.68;;;;;;;16.77;87.75;99902.94;5041326;28;20413;-76
2022/10/15 08:31:06;;;;;;;15.32;12.82;;;;;;;17.01;87.46;99898.41;5041760;28;20050;-76
2022/10/15 08:33:34;;;;;;;14.20;12.00;;;;;;;17.28;86.12;99891.84;5043421;28;20124;-76
2022/10/15 08:36:00;;;;;;;14.23;12.77;;;;;;;17.52;85.24;99895.22;5043174;28;20090;-76
2022/10/15 08:38:25;;;;;;;15.00;12.07;;;;;;;17.61;84.89;99893.09;5040136;28;20126;-76
2022/10/15 08:40:54;;;;;;;13.65;11.77;;;;;;;17.75;85.00;99901.34;5042814;28;20142;-76
2022/10/15 08:43:39;;;;;;;12.80;11.43;;;;;;;17.78;83.78;99895.84;5037110;28;20412;-76
2022/10/15 08:46:41;;;;;;;12.48;11.20;;;;;;;17.93;82.61;99889.84;5041867;28;20414;-76
2022/10/15 08:49:19;;;;;;;15.32;10.85;;;;;;;18.05;82.14;99898.19;5040421;28;20045;-76
2022/10/15 08:51:48;;;;;;;13.63;12.25;;;;;;;18.16;82.39;99901.25;5045170;28;20037;-76
2022/10/15 08:54:17;;;;;;;15.20;12.65;;;;;;;18.21;81.70;99899.22;5045374;28;20407;-77
2022/10/15 08:56:46;;;;;;;12.80;11.23;;;;;;;18.28;80.85;99897.09;5042195;28;20046;-77
2022/10/15 08:59:35;;;;;;;12.15;10.95;;;;;;;18.13;80.70;99904.03;5046553;28;20126;-76
2022/10/15 09:02:25;;;;;;;11.82;10.60;;;;;;;18.26;79.89;99902.53;5047935;28;20170;-77
2022/10/15 09:05:09;;;;;;;13.02;11.57;;;;;;;18.56;79.99;99905.53;5044677;28;20037;-76
2022/10/15 09:07:43;;;;;;;13.15;11.85;;;;;;;18.60;79.28;99901.78;5045404;28;20029;-76
2022/10/15 09:10:14;;;;;;;12.30;11.10;;;;;;;18.72;78.81;99902.09;5048166;28;20044;-77
2022/10/15 09:12:59;;;;;;;12.35;10.60;;;;;;;18.66;77.94;99902.41;5047363;28;20045;-77
2022/10/15 09:15:29;;;;;;;12.48;11.20;;;;;;;18.68;78.80;99904.06;5044483;28;20045;-76
2022/10/15 09:17:55;;;;;;;11.63;10.52;;;;;;;18.77;77.44;99911.66;5043159;28;20033;-77
2022/10/15 09:20:30;;;;;;;15.20;11.05;;;;;;;18.83;77.26;99916.69;5046062;28;20415;-77
2022/10/15 09:22:56;;;;;;;10.88;9.88;;;;;;;18.60;76.87;99917.81;5045850;28;20097;-77
2022/10/15 09:25:22;;;;;;;10.88;9.52;;;;;;;18.62;77.49;99917.72;5043475;28;20128;-76
2022/10/15 09:27:50;;;;;;;10.30;9.38;;;;;;;18.56;76.66;99918.03;5046312;28;20449;-75
2022/10/15 09:30:44;;;;;;;10.40;9.48;;;;;;;18.44;76.60;99921.28;5043906;28;20052;-76
2022/10/15 09:33:22;;;;;;;11.48;9.85;;;;;;;18.51;77.88;99928.06;5046491;28;20036;-76
2022/10/15 09:36:06;;;;;;;11.02;9.93;;;;;;;18.60;77.00;99930.28;5046265;28;20064;-76
2022/10/15 09:38:43;;;;;;;11.43;10.05;;;;;;;18.58;77.16;99927.69;5041541;28;20469;-75
2022/10/15 09:41:26;;;;;;;9.82;8.82;;;;;;;18.66;78.24;99932.66;5044294;28;20075;-76
2022/10/15 09:43:56;;;;;;;10.88;9.82;;;;;;;18.61;77.15;99930.22;5059180;28;20049;-76
2022/10/15 09:46:21;;;;;;;11.25;9.85;;;;;;;18.57;78.93;99933.09;5043891;28;20033;-77
2022/10/15 09:48:54;;;;;;;10.30;9.30;;;;;;;18.47;78.18;99938.06;5045074;28;20025;-77
2022/10/15 09:51:29;;;;;;;11.23;10.10;;;;;;;18.38;78.44;99931.31;5043028;28;20060;-77
2022/10/15 09:54:11;;;;;;;10.32;9.38;;;;;;;18.64;77.92;99925.66;5044041;28;20384;-76
2022/10/15 09:56:42;;;;;;;11.32;10.32;;;;;;;18.80;77.95;99932.00;5043597;28;20041;-76
2022/10/15 09:59:15;;;;;;;11.43;10.40;;;;;;;18.82;77.39;99927.47;5043569;28;20041;-76
2022/10/15 10:01:55;;;;;;;10.77;9.77;;;;;;;18.92;76.98;99938.56;5046483;28;20086;-77
2022/10/15 10:04:21;;;;;;;9.80;8.90;;;;;;;19.06;77.17;99933.38;5047968;28;20495;-76
2022/10/15 10:06:58;;;;;;;12.10;10.00;;;;;;;19.22;75.02;99939.66;5041902;28;20029;-77
2022/10/15 10:09:30;;;;;;;11.15;10.00;;;;;;;19.17;75.62;99938.19;5044566;28;20304;-77
2022/10/15 10:12:00;;;;;;;10.43;9.50;;;;;;;19.21;76.59;99929.06;5046244;28;20029;-76
2022/10/15 10:14:41;;;;;;;10.48;9.45;;;;;;;19.20;77.08;99938.03;5043329;28;20039;-77
2022/10/15 10:17:18;;;;;;;10.38;9.35;;;;;;;19.24;76.53;99939.59;5042755;28;20057;-77
2022/10/15 10:20:00;;;;;;;9.50;8.60;;;;;;;19.19;76.30;99939.84;5044004;28;20118;-76
2022/10/15 10:22:26;;;;;;;9.98;9.07;;;;;;;19.06;76.72;99938.72;5043310;28;20037;-76
2022/10/15 10:24:51;;;;;;;9.02;8.10;;;;;;;19.01;78.11;99940.78;5044429;28;20056;-77
2022/10/15 10:27:28;;;;;;;9.35;7.95;;;;;;;19.05;77.66;99945.03;5043841;28;20041;-77
2022/10/15 10:30:00;;;;;;;9.23;8.43;;;;;;;19.05;78.14;99939.69;5042509;28;20045;-76
2022/10/15 10:32:28;;;;;;;;;;;;;;;18.93;77.85;99945.63;5046857;28;20097;-76
2022/10/15 10:34:54;;;;;;;7.25;6.55;;;;;;;18.73;79.07;99942.13;5040019;28;19924;-76
2022/10/15 10:37:20;;;;;;;7.82;7.03;;;;;;;18.80;78.55;99942.72;5045317;28;20033;-76
2022/10/15 10:39:52;;;;;;;7.47;6.88;;;;;;;18.76;78.85;99943.81;5042182;28;20047;-77
2022/10/15 10:42:18;;;;;;;8.00;7.20;;;;;;;18.87;78.65;99941.47;5044153;28;20129;-77
2022/10/15 10:44:46;;;;;;;9.05;6.90;;;;;;;18.86;79.18;99946.88;5044095;28;20053;-75
2022/10/15 10:47:15;;;;;;;7.70;7.05;;;;;;;18.91;79.83;99948.38;5042256;28;20033;-75
2022/10/15 10:49:46;;;;;;;9.10;7.13;;;;;;;19.00;79.65;99947.06;5042113;28;20041;-76
2022/10/15 10:52:30;;;;;;;6.90;6.13;;;;;;;18.97;80.18;99944.56;5043684;28;20495;-76
2022/10/15 10:55:19;;;;;;;9.00;7.05;;;;;;;18.89;80.21;99938.69;5042929;28;20075;-77
2022/10/15 10:57:48;;;;;;;6.78;6.18;;;;;;;18.79;80.33;99941.84;5042607;28;20037;-76
2022/10/15 11:00:22;;;;;;;7.75;6.05;;;;;;;18.69;80.74;99942.34;5043614;28;20036;-77
2022/10/15 11:02:49;;;;;;;7.07;5.95;;;;;;;18.59;81.20;99947.25;5045405;28;20056;-76
2022/10/15 11:05:27;;;;;;;6.07;5.45;;;;;;;18.66;81.14;99943.34;5047586;28;20033;-76
2022/10/15 11:08:17;;;;;;;6.43;4.75;;;;;;;18.77;80.79;99943.72;5042148;28;20033;-76
2022/10/15 11:10:57;;;;;;;5.45;5.00;;;;;;;18.87;81.02;99948.63;5040749;28;20423;-76
2022/10/15 11:13:41;;;;;;;5.20;4.80;;;;;;;18.91;80.37;99947.50;5046004;28;20048;-77
2022/10/15 11:16:14;;;;;;;5.63;5.13;;;;;;;19.13;79.62;99947.31;5042503;28;20029;-77
2022/10/15 11:19:07;;;;;;;6.07;5.53;;;;;;;19.04;79.72;99932.59;5042484;28;20400;-77
2022/10/15 11:21:58;;;;;;;4.78;4.38;;;;;;;18.99;80.06;99946.22;5044674;28;20280;-75
2022/10/15 11:24:48;;;;;;;5.15;4.65;;;;;;;19.10;79.51;99942.09;5044310;28;20036;-76
2022/10/15 11:27:27;;;;;;;5.05;4.55;;;;;;;19.03;79.94;99941.56;5044433;28;20445;-77
2022/10/15 11:29:57;;;;;;;4.68;4.22;;;;;;;19.09;80.50;99940.38;5043209;28;20393;-76
2022/10/15 11:32:32;;;;;;;5.40;4.78;;;;;;;19.14;80.73;99944.56;5045028;28;20033;-76
2022/10/15 11:35:18;;;;;;;5.00;4.60;;;;;;;19.04;80.08;99944.13;5042096;28;20044;-77